Time;durP1;ratioP1;P1;durP2;ratioP2;P2;SDS_P1;SDS_P2;PMS_P1;PMS_P2;Temp;Humidity;BMP_temperature;BMP_pressure;BME280_temperature;BME280_humidity;BME280_pressure;Samples;Min_cycle;Max_cycle;Signal;HPM_P1;HPM_P2
2023/05/04 00:00:14;;;;;;;17.93;11.70;;;;;;;11.33;100.00;94789.88;5055377;28;20198;-76
2023/05/04 00:02:41;;;;;;;15.30;12.43;;;;;;;11.38;100.00;94782.19;5059902;28;20202;-77
2023/05/04 00:05:09;;;;;;;16.60;12.80;;;;;;;11.39;100.00;94786.41;5071454;28;20305;-77
2023/05/04 00:07:35;;;;;;;20.83;13.73;;;;;;;11.45;100.00;94776.91;5065176;28;21117;-78
2023/05/04 00:10:02;;;;;;;14.97;12.67;;;;;;;11.48;100.00;94766.06;5076094;28;20216;-78
2023/05/04 00:12:30;;;;;;;16.23;12.63;;;;;;;11.50;100.00;94769.25;5072388;28;20224;-79
2023/05/04 00:14:57;;;;;;;19.13;12.67;;;;;;;11.47;100.00;94774.88;5071334;28;20232;-79
2023/05/04 00:17:25;;;;;;;15.43;12.20;;;;;;;11.35;100.00;94774.84;5083807;28;20621;-79
2023/05/04 00:19:52;;;;;;;22.93;12.77;;;;;;;11.28;100.00;94771.53;5079471;28;20670;-79
2023/05/04 00:22:18;;;;;;;16.13;12.03;;;;;;;11.31;100.00;94777.06;5061511;28;20212;-80
2023/05/04 00:24:45;;;;;;;15.83;11.57;;;;;;;11.21;100.00;94770.81;5062437;28;20268;-79
2023/05/04 00:27:12;;;;;;;14.83;11.63;;;;;;;11.20;100.00;94780.41;5063000;28;20197;-79
2023/05/04 00:29:39;;;;;;;18.10;12.53;;;;;;;11.06;100.00;94770.38;5063906;28;20224;-79
2023/05/04 00:32:06;;;;;;;18.30;11.70;;;;;;;11.11;100.00;94770.53;5070563;28;20209;-79
2023/05/04 00:34:34;;;;;;;18.50;12.70;;;;;;;11.08;100.00;94774.34;5074582;28;20228;-79
2023/05/04 00:37:01;;;;;;;19.33;13.20;;;;;;;11.05;100.00;94774.81;5077113;28;20204;-79
2023/05/04 00:39:28;;;;;;;18.13;12.33;;;;;;;11.16;100.00;94776.69;5075855;28;20218;-78
2023/05/04 00:41:55;;;;;;;18.23;12.80;;;;;;;11.23;100.00;94772.19;5067842;28;20251;-78
2023/05/04 00:44:23;;;;;;;22.70;12.53;;;;;;;11.35;100.00;94773.03;5060379;28;20286;-77
2023/05/04 00:46:51;;;;;;;15.60;11.73;;;;;;;11.45;100.00;94779.53;5073489;28;20288;-77
2023/05/04 00:49:20;;;;;;;15.20;11.57;;;;;;;11.33;100.00;94771.66;5067006;28;20296;-77
2023/05/04 00:51:49;;;;;;;20.23;11.93;;;;;;;11.16;100.00;94766.28;5070449;28;20660;-77
2023/05/04 00:54:17;;;;;;;15.20;11.70;;;;;;;11.05;100.00;94767.00;5075652;28;20202;-77
2023/05/04 00:56:44;;;;;;;18.77;12.60;;;;;;;11.09;100.00;94770.75;5073729;28;20625;-77
2023/05/04 00:59:12;;;;;;;19.10;13.30;;;;;;;11.13;100.00;94763.31;5068100;28;20225;-78
2023/05/04 01:01:40;;;;;;;21.10;14.30;;;;;;;11.25;100.00;94766.78;5070363;28;20209;-78
2023/05/04 01:04:07;;;;;;;20.60;14.97;;;;;;;11.32;100.00;94759.66;5072244;28;20212;-78
2023/05/04 01:06:42;;;;;;;22.93;16.00;;;;;;;11.35;100.00;94764.44;5070545;28;20212;-79
2023/05/04 01:09:19;;;;;;;19.53;14.77;;;;;;;11.39;100.00;94763.78;5074983;28;20201;-79
2023/05/04 01:11:55;;;;;;;21.37;16.00;;;;;;;11.44;100.00;94768.31;5064875;28;20204;-79
2023/05/04 01:14:22;;;;;;;23.03;15.33;;;;;;;11.51;100.00;94765.63;5081260;28;20229;-79
2023/05/04 01:16:53;;;;;;;24.67;16.43;;;;;;;11.59;100.00;94757.50;5076030;28;20513;-78
2023/05/04 01:19:20;;;;;;;20.70;15.83;;;;;;;11.67;100.00;94762.41;5068700;28;20665;-78
2023/05/04 01:21:48;;;;;;;21.77;15.90;;;;;;;11.71;100.00;94759.19;5070021;28;20209;-79
2023/05/04 01:24:15;;;;;;;22.53;16.50;;;;;;;11.81;100.00;94758.63;5082975;28;20668;-78
2023/05/04 01:26:45;;;;;;;25.07;16.27;;;;;;;11.79;100.00;94756.25;5071735;28;20682;-78
2023/05/04 01:29:16;;;;;;;20.97;15.57;;;;;;;11.84;100.00;94758.97;5073829;28;20228;-78
2023/05/04 01:31:44;;;;;;;22.03;16.37;;;;;;;11.80;100.00;94744.03;5067536;28;20209;-76
2023/05/04 01:34:12;;;;;;;23.03;16.60;;;;;;;11.84;100.00;94739.94;5074133;28;20205;-76
2023/05/04 01:36:40;;;;;;;20.73;15.67;;;;;;;12.02;100.00;94750.28;5072637;28;20202;-76
2023/05/04 01:39:08;;;;;;;23.97;15.67;;;;;;;11.98;100.00;94754.34;5069282;28;20221;-76
2023/05/04 01:41:36;;;;;;;27.33;15.90;;;;;;;11.98;100.00;94743.94;5074918;28;20291;-76
2023/05/04 01:44:03;;;;;;;20.63;15.43;;;;;;;12.03;100.00;94754.50;5072099;28;20227;-77
2023/05/04 01:46:30;;;;;;;20.97;15.67;;;;;;;11.99;100.00;94748.13;5069560;28;20189;-76
2023/05/04 01:48:58;;;;;;;23.87;15.67;;;;;;;12.06;100.00;94742.84;5063619;28;20190;-76
2023/05/04 01:51:24;;;;;;;23.40;14.13;;;;;;;12.10;100.00;94743.97;5064577;28;20198;-77
2023/05/04 01:53:51;;;;;;;20.73;14.87;;;;;;;12.11;100.00;94735.13;5067557;28;20209;-79
2023/05/04 01:56:20;;;;;;;21.67;14.50;;;;;;;12.11;100.00;94735.13;5066737;28;20656;-79
2023/05/04 01:58:47;;;;;;;27.23;14.90;;;;;;;12.08;100.00;94741.59;5076722;28;20698;-78
2023/05/04 02:01:14;;;;;;;21.97;14.93;;;;;;;12.08;100.00;94740.78;5082260;28;20223;-78
2023/05/04 02:03:41;;;;;;;23.80;15.07;;;;;;;11.94;100.00;94738.41;5066052;28;20240;-78
2023/05/04 02:06:08;;;;;;;18.67;14.07;;;;;;;11.91;100.00;94745.88;5064931;28;20209;-78
2023/05/04 02:08:35;;;;;;;19.63;13.83;;;;;;;11.92;100.00;94752.63;5067884;28;20292;-78
2023/05/04 02:11:01;;;;;;;21.10;14.20;;;;;;;11.87;100.00;94742.09;5078086;28;20220;-78
2023/05/04 02:13:32;;;;;;;20.17;13.77;;;;;;;11.90;100.00;94739.84;5073412;28;20250;-78
2023/05/04 02:15:59;;;;;;;20.63;13.87;;;;;;;11.90;100.00;94739.06;5066056;28;20298;-78
2023/05/04 02:18:25;;;;;;;18.90;13.30;;;;;;;11.80;100.00;94742.19;5069944;28;20212;-79
2023/05/04 02:20:52;;;;;;;21.00;14.30;;;;;;;11.78;100.00;94738.22;5074049;28;20201;-78
2023/05/04 02:23:19;;;;;;;18.43;12.83;;;;;;;11.81;100.00;94738.59;5074206;28;20193;-77
2023/05/04 02:25:46;;;;;;;20.43;13.87;;;;;;;11.81;100.00;94737.78;5063808;28;20236;-77
2023/05/04 02:28:13;;;;;;;18.97;13.10;;;;;;;11.78;100.00;94743.44;5073975;28;20210;-79
2023/05/04 02:30:41;;;;;;;17.77;13.37;;;;;;;11.79;100.00;94743.22;5064474;28;20198;-76
2023/05/04 02:33:08;;;;;;;19.37;13.67;;;;;;;11.74;100.00;94744.91;5056873;28;20279;-76
2023/05/04 02:35:35;;;;;;;17.70;12.83;;;;;;;11.66;100.00;94738.16;5071884;28;21621;-76
2023/05/04 02:38:01;;;;;;;16.47;11.87;;;;;;;11.75;100.00;94741.28;5079840;28;20197;-76
2023/05/04 02:40:28;;;;;;;20.00;12.57;;;;;;;11.73;100.00;94740.72;5060551;28;20240;-76
2023/05/04 02:42:55;;;;;;;18.97;12.60;;;;;;;11.71;100.00;94743.56;5057728;28;20280;-76
2023/05/04 02:45:22;;;;;;;16.83;11.77;;;;;;;11.66;100.00;94738.16;5065737;28;20316;-76
2023/05/04 02:47:50;;;;;;;15.40;11.50;;;;;;;11.53;100.00;94740.97;5062889;28;20207;-76
2023/05/04 02:50:17;;;;;;;16.67;10.63;;;;;;;11.45;100.00;94732.69;5079214;28;20197;-77
2023/05/04 02:52:44;;;;;;;17.60;11.53;;;;;;;11.46;100.00;94735.06;5062752;28;20206;-76
2023/05/04 02:55:10;;;;;;;17.20;11.20;;;;;;;11.52;100.00;94744.56;5061782;28;20724;-77
2023/05/04 02:57:37;;;;;;;17.70;11.40;;;;;;;11.38;100.00;94730.97;5068508;28;20213;-76
2023/05/04 03:00:05;;;;;;;15.73;11.40;;;;;;;11.38;100.00;94738.75;5068450;28;20658;-77
2023/05/04 03:02:32;;;;;;;16.53;11.23;;;;;;;11.33;100.00;94749.06;5068987;28;20649;-76
2023/05/04 03:05:01;;;;;;;15.23;11.10;;;;;;;11.01;100.00;94750.25;5071089;28;20633;-76
2023/05/04 03:07:28;;;;;;;14.83;10.47;;;;;;;10.82;100.00;94748.66;5077305;28;20197;-76
2023/05/04 03:09:55;;;;;;;13.03;10.33;;;;;;;10.70;100.00;94745.19;5070658;28;20290;-76
2023/05/04 03:12:22;;;;;;;13.10;10.00;;;;;;;10.76;100.00;94747.69;5065209;28;20280;-76
2023/05/04 03:14:48;;;;;;;12.23;9.30;;;;;;;10.87;100.00;94746.19;5076698;28;20600;-76
2023/05/04 03:17:15;;;;;;;12.90;9.50;;;;;;;11.01;100.00;94758.03;5071454;28;20618;-76
2023/05/04 03:19:42;;;;;;;14.47;9.67;;;;;;;11.01;100.00;94755.44;5060615;28;20217;-77
2023/05/04 03:22:11;;;;;;;15.20;9.87;;;;;;;11.08;100.00;94765.78;5065329;28;20197;-77
2023/05/04 03:24:38;;;;;;;12.83;9.77;;;;;;;11.18;100.00;94761.63;5073252;28;20291;-76
2023/05/04 03:27:05;;;;;;;11.73;8.63;;;;;;;11.17;100.00;94757.44;5067005;28;20726;-77
2023/05/04 03:29:32;;;;;;;11.27;8.40;;;;;;;11.22;100.00;94765.41;5067551;28;20835;-77
2023/05/04 03:31:59;;;;;;;10.43;7.77;;;;;;;11.23;100.00;94766.16;5060619;28;20210;-77
2023/05/04 03:34:25;;;;;;;10.10;7.53;;;;;;;11.27;100.00;94762.94;5062586;28;20202;-78
2023/05/04 03:36:52;;;;;;;9.53;7.47;;;;;;;11.20;100.00;94761.41;5062635;28;20205;-78
2023/05/04 03:39:20;;;;;;;9.43;7.50;;;;;;;11.13;100.00;94766.72;5071076;28;20217;-82
2023/05/04 03:41:48;;;;;;;11.73;7.97;;;;;;;10.99;100.00;94767.88;5067050;28;20205;-75
2023/05/04 03:44:15;;;;;;;12.17;7.77;;;;;;;11.00;100.00;94768.66;5068051;28;20566;-76
2023/05/04 03:46:41;;;;;;;9.30;7.63;;;;;;;11.09;100.00;94780.34;5063243;28;20246;-75
2023/05/04 03:49:08;;;;;;;11.80;8.17;;;;;;;11.07;100.00;94782.38;5067105;28;20817;-75
2023/05/04 03:51:35;;;;;;;13.13;8.30;;;;;;;11.01;100.00;94789.25;5062569;28;20202;-74
2023/05/04 03:54:02;;;;;;;9.77;7.90;;;;;;;11.05;100.00;94789.63;5068111;28;20191;-75
2023/05/04 03:56:30;;;;;;;11.77;8.63;;;;;;;10.98;100.00;94789.69;5077329;28;20643;-73
2023/05/04 03:58:57;;;;;;;10.17;8.37;;;;;;;11.03;100.00;94794.22;5055893;28;20306;-73
2023/05/04 04:01:24;;;;;;;13.73;8.43;;;;;;;10.98;100.00;94786.28;5069187;28;20203;-75
2023/05/04 04:03:50;;;;;;;13.13;8.43;;;;;;;11.06;100.00;94789.38;5068676;28;20560;-75
2023/05/04 04:06:17;;;;;;;11.10;8.87;;;;;;;10.94;100.00;94777.34;5062168;28;20193;-77
2023/05/04 04:08:44;;;;;;;11.60;8.60;;;;;;;11.07;100.00;94790.19;5062951;28;20197;-77
2023/05/04 04:11:11;;;;;;;11.63;8.47;;;;;;;11.15;100.00;94792.47;5068881;28;20201;-77
2023/05/04 04:13:39;;;;;;;9.20;7.40;;;;;;;11.11;100.00;94797.31;5067505;28;20201;-78
2023/05/04 04:16:06;;;;;;;10.20;8.13;;;;;;;11.09;100.00;94796.75;5065191;28;20233;-78
2023/05/04 04:18:33;;;;;;;10.87;7.87;;;;;;;11.11;100.00;94788.75;5063833;28;20213;-78
2023/05/04 04:21:00;;;;;;;11.10;8.17;;;;;;;11.15;100.00;94801.09;5075312;28;20228;-77
2023/05/04 04:23:27;;;;;;;11.07;8.07;;;;;;;11.08;100.00;94802.19;5081400;28;20193;-76
2023/05/04 04:25:53;;;;;;;13.33;8.30;;;;;;;11.11;100.00;94799.16;5066067;28;20197;-77
2023/05/04 04:28:21;;;;;;;11.47;8.00;;;;;;;11.11;100.00;94799.91;5065773;28;20208;-77
2023/05/04 04:30:49;;;;;;;10.67;7.97;;;;;;;11.20;100.00;94803.81;5077330;28;20556;-78
2023/05/04 04:33:16;;;;;;;9.33;7.70;;;;;;;11.13;100.00;94810.13;5067547;28;20198;-77
2023/05/04 04:35:43;;;;;;;10.57;7.53;;;;;;;11.05;100.00;94808.63;5062961;28;20195;-77
2023/05/04 04:38:11;;;;;;;10.10;8.33;;;;;;;11.08;100.00;94817.78;5069913;28;20201;-78
2023/05/04 04:40:37;;;;;;;12.60;8.40;;;;;;;11.11;100.00;94820.72;5064629;28;20233;-78
2023/05/04 04:43:04;;;;;;;13.90;9.37;;;;;;;11.14;100.00;94819.53;5067612;28;20207;-77
2023/05/04 04:45:31;;;;;;;12.47;9.27;;;;;;;11.01;100.00;94820.44;5066877;28;20198;-78
2023/05/04 04:47:59;;;;;;;14.47;9.10;;;;;;;10.98;100.00;94820.09;5067293;28;20725;-77
2023/05/04 04:50:27;;;;;;;14.00;9.20;;;;;;;11.00;100.00;94828.44;5066464;28;20201;-77
2023/05/04 04:52:54;;;;;;;13.60;9.03;;;;;;;11.07;100.00;94824.00;5070891;28;20215;-78
2023/05/04 04:55:24;;;;;;;11.47;8.70;;;;;;;11.04;100.00;94833.03;5069525;28;20243;-76
2023/05/04 04:57:51;;;;;;;12.33;9.07;;;;;;;11.04;100.00;94827.81;5068917;28;20212;-77
2023/05/04 05:00:18;;;;;;;12.00;8.67;;;;;;;10.90;100.00;94830.78;5072027;28;20244;-78
2023/05/04 05:02:45;;;;;;;11.63;8.40;;;;;;;10.99;100.00;94835.50;5057918;28;20233;-77
2023/05/04 05:05:13;;;;;;;12.17;8.57;;;;;;;11.04;100.00;94830.41;5063765;28;20711;-77
2023/05/04 05:07:40;;;;;;;11.73;9.00;;;;;;;11.08;100.00;94836.75;5075699;28;20193;-77
2023/05/04 05:10:08;;;;;;;14.43;9.80;;;;;;;10.98;100.00;94844.28;5069525;28;20214;-76
2023/05/04 05:12:35;;;;;;;16.03;10.40;;;;;;;11.05;100.00;94845.03;5069340;28;21683;-77
2023/05/04 05:15:03;;;;;;;13.90;9.30;;;;;;;10.80;100.00;94842.44;5068375;28;20730;-77
2023/05/04 05:17:30;;;;;;;18.03;11.33;;;;;;;10.80;100.00;94839.06;5072088;28;20734;-76
2023/05/04 05:19:56;;;;;;;19.67;10.80;;;;;;;10.80;100.00;94845.06;5077374;28;20212;-76
2023/05/04 05:22:25;;;;;;;15.17;10.73;;;;;;;10.72;100.00;94836.72;5069955;28;20194;-77
2023/05/04 05:24:52;;;;;;;13.97;10.43;;;;;;;10.77;100.00;94848.06;5075476;28;20198;-74
2023/05/04 05:27:18;;;;;;;14.83;9.90;;;;;;;10.90;100.00;94849.78;5075376;28;20589;-75
2023/05/04 05:29:46;;;;;;;13.27;9.63;;;;;;;10.93;100.00;94846.75;5072038;28;20194;-77
2023/05/04 05:32:13;;;;;;;14.33;9.40;;;;;;;10.92;100.00;94844.34;5074041;28;20221;-76
2023/05/04 05:34:39;;;;;;;12.13;9.80;;;;;;;10.96;100.00;94845.50;5075333;28;20202;-75
2023/05/04 05:37:06;;;;;;;13.70;9.30;;;;;;;11.10;100.00;94852.97;5071798;28;20205;-76
2023/05/04 05:39:35;;;;;;;13.23;9.40;;;;;;;11.14;100.00;94863.75;5061862;28;20224;-76
2023/05/04 05:42:05;;;;;;;12.33;9.50;;;;;;;11.17;100.00;94864.09;5072201;28;20196;-76
2023/05/04 05:44:36;;;;;;;13.40;9.27;;;;;;;10.88;100.00;94851.78;5078235;28;20220;-75
2023/05/04 05:47:02;;;;;;;12.60;8.93;;;;;;;10.69;100.00;94857.97;5068891;28;20259;-76
2023/05/04 05:49:30;;;;;;;12.73;9.03;;;;;;;10.70;100.00;94856.97;5072047;28;20200;-75
2023/05/04 05:51:57;;;;;;;14.43;9.33;;;;;;;10.78;100.00;94857.47;5064755;28;20304;-75
2023/05/04 05:54:25;;;;;;;13.50;9.37;;;;;;;10.91;100.00;94869.53;5080508;28;20220;-75
2023/05/04 05:56:53;;;;;;;13.57;9.20;;;;;;;11.11;100.00;94862.34;5069888;28;20226;-75
2023/05/04 05:59:20;;;;;;;12.83;8.80;;;;;;;11.22;100.00;94861.66;5068431;28;20196;-78
2023/05/04 06:01:47;;;;;;;12.13;9.13;;;;;;;11.36;100.00;94870.09;5069522;28;20232;-76
2023/05/04 06:04:13;;;;;;;12.53;9.20;;;;;;;11.39;100.00;94867.88;5071177;28;20192;-77
2023/05/04 06:06:40;;;;;;;12.90;9.33;;;;;;;11.21;100.00;94870.47;5064624;28;20228;-77
2023/05/04 06:09:07;;;;;;;14.40;8.80;;;;;;;11.21;100.00;94872.25;5072026;28;20206;-77
2023/05/04 06:11:34;;;;;;;14.70;9.03;;;;;;;11.40;100.00;94868.63;5061962;28;20628;-77
2023/05/04 06:14:02;;;;;;;10.90;8.20;;;;;;;11.57;100.00;94874.84;5070270;28;20263;-77
2023/05/04 06:16:29;;;;;;;11.97;8.50;;;;;;;11.72;100.00;94877.91;5067396;28;20197;-76
2023/05/04 06:18:55;;;;;;;13.10;8.53;;;;;;;11.89;100.00;94884.09;5072419;28;20257;-77
2023/05/04 06:21:22;;;;;;;13.33;8.53;;;;;;;12.07;100.00;94875.44;5074827;28;20221;-76
2023/05/04 06:23:49;;;;;;;10.83;7.90;;;;;;;12.26;100.00;94882.22;5069373;28;20201;-76
2023/05/04 06:26:16;;;;;;;14.97;8.60;;;;;;;12.31;100.00;94868.50;5058990;28;20205;-76
2023/05/04 06:28:42;;;;;;;10.60;7.43;;;;;;;12.52;100.00;94889.63;5064304;28;20202;-75
2023/05/04 06:31:11;;;;;;;9.43;7.40;;;;;;;12.61;100.00;94895.31;5069128;28;20193;-76
2023/05/04 06:33:37;;;;;;;14.10;7.47;;;;;;;12.76;100.00;94894.88;5072516;28;20202;-76
2023/05/04 06:36:05;;;;;;;7.43;6.47;;;;;;;12.86;100.00;94889.91;5072905;28;20201;-76
2023/05/04 06:38:32;;;;;;;8.60;5.77;;;;;;;12.86;100.00;94887.31;5069514;28;20236;-76
2023/05/04 06:40:58;;;;;;;10.40;5.90;;;;;;;12.88;100.00;94888.66;5075760;28;20221;-77
2023/05/04 06:43:25;;;;;;;9.10;6.27;;;;;;;12.91;100.00;94884.81;5065081;28;20211;-76
2023/05/04 06:45:52;;;;;;;13.93;7.40;;;;;;;13.02;100.00;94891.84;5064717;28;20205;-76
2023/05/04 06:48:21;;;;;;;9.73;5.90;;;;;;;13.00;100.00;94892.09;5063842;28;20202;-75
2023/05/04 06:50:48;;;;;;;7.07;5.47;;;;;;;12.96;100.00;94875.28;5077618;28;20269;-75
2023/05/04 06:53:15;;;;;;;9.27;5.87;;;;;;;13.03;100.00;94893.44;5071635;28;20189;-75
2023/05/04 06:55:42;;;;;;;11.00;5.80;;;;;;;12.90;100.00;94894.44;5066863;28;20683;-75
2023/05/04 06:58:09;;;;;;;6.97;5.17;;;;;;;12.86;100.00;94885.50;5076401;28;20262;-74
2023/05/04 07:00:36;;;;;;;7.87;6.00;;;;;;;12.95;100.00;94891.19;5052561;28;20229;-76
2023/05/04 07:03:03;;;;;;;7.73;5.90;;;;;;;13.01;100.00;94890.28;5075650;28;20625;-78
2023/05/04 07:05:35;;;;;;;9.20;6.10;;;;;;;12.89;100.00;94903.31;5070119;28;20204;-76
2023/05/04 07:08:02;;;;;;;11.37;6.37;;;;;;;12.81;100.00;94893.19;5075819;28;20218;-75
2023/05/04 07:10:29;;;;;;;9.47;6.07;;;;;;;12.82;100.00;94889.56;5058005;28;20263;-75
2023/05/04 07:12:56;;;;;;;9.50;6.40;;;;;;;12.74;100.00;94886.50;5057677;28;20193;-76
2023/05/04 07:15:22;;;;;;;11.03;6.63;;;;;;;12.64;100.00;94892.25;5054124;28;20234;-75
2023/05/04 07:17:50;;;;;;;10.17;6.40;;;;;;;12.57;100.00;94882.97;5058956;28;20198;-75
2023/05/04 07:20:17;;;;;;;9.00;6.90;;;;;;;12.47;100.00;94883.50;5063278;28;20613;-76
2023/05/04 07:22:45;;;;;;;10.43;6.90;;;;;;;12.42;100.00;94888.59;5072573;28;20201;-76
2023/05/04 07:25:13;;;;;;;9.97;6.97;;;;;;;12.38;100.00;94890.84;5068445;28;20202;-77
2023/05/04 07:27:42;;;;;;;8.93;7.27;;;;;;;12.35;100.00;94893.13;5072722;28;20198;-76
2023/05/04 07:30:10;;;;;;;10.43;7.33;;;;;;;12.30;100.00;94885.16;5061969;28;20197;-75
2023/05/04 07:32:40;;;;;;;10.63;7.80;;;;;;;12.28;100.00;94889.81;5067533;28;20215;-76
2023/05/04 07:42:47;;;;;;;12.23;7.73;;;;;;;11.65;100.00;94819.09;4923877;28;20241;-76
2023/05/04 07:45:16;;;;;;;10.10;7.47;;;;;;;12.18;100.00;94897.38;4924737;28;20674;-77
2023/05/04 07:47:43;;;;;;;10.77;7.87;;;;;;;12.17;100.00;94904.38;5040287;28;20647;-75
2023/05/04 07:50:10;;;;;;;12.40;7.73;;;;;;;12.20;100.00;94893.53;5067855;28;20202;-76
2023/05/04 07:52:37;;;;;;;11.53;8.40;;;;;;;12.14;100.00;94906.63;5064042;28;21742;-76
2023/05/04 07:55:05;;;;;;;12.10;7.67;;;;;;;12.09;100.00;94902.06;5072258;28;20206;-76
2023/05/04 07:57:34;;;;;;;10.87;7.47;;;;;;;12.07;100.00;94905.91;5071184;28;20212;-77
2023/05/04 08:00:01;;;;;;;11.47;7.47;;;;;;;11.80;100.00;94908.06;5065224;28;20280;-75
2023/05/04 08:02:29;;;;;;;12.97;8.47;;;;;;;11.64;100.00;94912.03;5066737;28;20217;-75
2023/05/04 08:05:01;;;;;;;14.10;8.40;;;;;;;11.21;100.00;94888.66;5066183;28;20205;-76
2023/05/04 08:07:28;;;;;;;14.70;9.10;;;;;;;11.45;100.00;94917.44;5066689;28;20224;-76
2023/05/04 08:09:55;;;;;;;13.50;9.00;;;;;;;11.53;100.00;94919.75;5059219;28;20562;-74
2023/05/04 08:12:22;;;;;;;13.93;8.63;;;;;;;11.60;100.00;94918.66;5064033;28;20536;-74
2023/05/04 08:14:50;;;;;;;11.47;7.93;;;;;;;11.80;100.00;94929.69;5073280;28;20236;-77
2023/05/04 08:17:17;;;;;;;12.43;8.27;;;;;;;11.85;100.00;94927.25;5073015;28;20223;-75
2023/05/04 08:19:45;;;;;;;12.33;8.00;;;;;;;12.02;100.00;94926.63;5075564;28;20659;-76
2023/05/04 08:22:12;;;;;;;11.03;7.93;;;;;;;12.11;100.00;94931.31;5071473;28;20217;-75
2023/05/04 08:24:38;;;;;;;9.77;7.73;;;;;;;12.15;100.00;94919.44;5074768;28;20806;-75
2023/05/04 08:27:05;;;;;;;11.37;7.67;;;;;;;12.23;100.00;94926.16;5077545;28;20231;-76
2023/05/04 08:29:32;;;;;;;12.53;8.50;;;;;;;12.32;100.00;94930.81;5079872;28;20655;-76
2023/05/04 08:31:59;;;;;;;11.50;7.67;;;;;;;12.31;100.00;94926.66;5077021;28;20731;-75
2023/05/04 08:34:27;;;;;;;13.87;8.77;;;;;;;12.42;100.00;94925.88;5077663;28;20668;-77
2023/05/04 08:36:55;;;;;;;13.90;8.57;;;;;;;12.57;100.00;94922.06;5077441;28;20213;-77
2023/05/04 08:39:22;;;;;;;11.97;8.83;;;;;;;12.56;100.00;94916.06;5077693;28;20659;-76
2023/05/04 08:41:48;;;;;;;14.53;9.27;;;;;;;12.68;100.00;94921.28;5079128;28;20221;-77
2023/05/04 08:44:17;;;;;;;13.90;9.10;;;;;;;12.74;100.00;94925.63;5078041;28;20262;-78
2023/05/04 08:46:51;;;;;;;13.60;8.77;;;;;;;12.88;100.00;94937.44;5076964;28;20243;-77
2023/05/04 08:49:18;;;;;;;13.23;8.60;;;;;;;12.98;100.00;94925.44;5073798;28;20650;-77
2023/05/04 08:51:48;;;;;;;13.40;8.93;;;;;;;13.04;100.00;94929.72;5075670;28;20223;-77
2023/05/04 08:54:17;;;;;;;14.73;9.67;;;;;;;13.07;100.00;94925.91;5078777;28;20284;-78
2023/05/04 08:56:46;;;;;;;14.57;10.60;;;;;;;13.17;100.00;94936.59;5075784;28;20197;-76
2023/05/04 08:59:20;;;;;;;14.83;9.43;;;;;;;13.14;100.00;94926.59;5070090;28;20739;-77
2023/05/04 09:01:51;;;;;;;13.97;9.60;;;;;;;12.97;100.00;94926.44;5073454;28;20216;-78
2023/05/04 09:04:19;;;;;;;13.57;8.83;;;;;;;12.79;100.00;94925.72;5079234;28;20200;-78
2023/05/04 09:06:47;;;;;;;14.40;9.03;;;;;;;12.57;100.00;94916.84;5072887;28;20209;-77
2023/05/04 09:09:14;;;;;;;18.23;10.67;;;;;;;12.67;100.00;94923.09;5074682;28;20190;-77
2023/05/04 09:11:43;;;;;;;12.87;8.67;;;;;;;12.78;100.00;94922.34;5077563;28;20212;-75
2023/05/04 09:14:10;;;;;;;13.13;9.17;;;;;;;12.91;100.00;94926.53;5077465;28;20237;-75
2023/05/04 09:16:37;;;;;;;13.10;8.20;;;;;;;13.02;100.00;94931.78;5071852;28;20467;-76
2023/05/04 09:19:16;;;;;;;10.57;7.90;;;;;;;13.08;100.00;94928.31;5078944;28;20284;-74
2023/05/04 09:21:43;;;;;;;10.57;7.80;;;;;;;13.13;100.00;94919.78;5074549;28;20224;-77
2023/05/04 09:24:11;;;;;;;11.00;7.90;;;;;;;13.11;100.00;94921.81;5073615;28;20205;-76
2023/05/04 09:26:38;;;;;;;14.20;9.00;;;;;;;12.83;100.00;94937.31;5077758;28;20324;-76
2023/05/04 09:29:13;;;;;;;13.90;9.60;;;;;;;12.62;100.00;94917.78;5077764;28;20197;-76
2023/05/04 09:31:44;;;;;;;15.57;10.83;;;;;;;12.70;100.00;94927.09;5068543;28;20276;-76
2023/05/04 09:34:12;;;;;;;16.70;10.20;;;;;;;12.86;100.00;94921.22;5078225;28;20211;-77
2023/05/04 09:36:39;;;;;;;12.67;8.47;;;;;;;13.01;100.00;94930.22;5074261;28;20228;-76
2023/05/04 09:39:10;;;;;;;12.90;8.60;;;;;;;13.11;100.00;94924.44;5071903;28;20206;-77
2023/05/04 09:41:37;;;;;;;11.27;8.27;;;;;;;13.18;100.00;94927.75;5073066;28;20988;-75
2023/05/04 09:44:04;;;;;;;11.37;8.70;;;;;;;13.28;100.00;94916.72;5077351;28;20195;-76
2023/05/04 09:46:32;;;;;;;13.23;8.13;;;;;;;13.33;100.00;94925.44;5076644;28;20197;-75
2023/05/04 09:48:59;;;;;;;13.63;8.00;;;;;;;13.37;100.00;94900.50;5075432;28;20716;-75
2023/05/04 09:51:27;;;;;;;12.90;7.90;;;;;;;13.53;100.00;94912.06;5077888;28;20566;-75
2023/05/04 09:53:54;;;;;;;12.03;8.20;;;;;;;13.58;100.00;94912.16;5078316;28;20233;-77
2023/05/04 09:56:32;;;;;;;13.07;8.30;;;;;;;13.68;100.00;94912.34;5077002;28;20188;-75
2023/05/04 09:58:59;;;;;;;10.83;7.83;;;;;;;13.72;100.00;94917.91;5072102;28;20193;-75
2023/05/04 10:01:28;;;;;;;14.30;9.50;;;;;;;13.76;98.78;94913.84;5076458;28;20236;-76
2023/05/04 10:03:58;;;;;;;14.60;9.37;;;;;;;13.72;99.98;94908.28;5074742;28;20216;-75
2023/05/04 10:06:25;;;;;;;16.37;9.83;;;;;;;13.78;100.00;94909.97;5077595;28;20602;-74
2023/05/04 10:08:52;;;;;;;16.97;10.57;;;;;;;13.78;99.53;94901.31;5075076;28;20208;-75
2023/05/04 10:11:20;;;;;;;15.33;10.37;;;;;;;13.84;100.00;94906.44;5075500;28;20196;-75
2023/05/04 10:13:47;;;;;;;17.13;10.47;;;;;;;13.84;98.05;94909.03;5076538;28;20210;-76
2023/05/04 10:16:27;;;;;;;15.50;10.43;;;;;;;13.81;99.65;94906.88;5077445;28;20194;-76
2023/05/04 10:19:24;;;;;;;20.80;10.47;;;;;;;13.85;98.81;94902.78;5069903;28;20208;-77
2023/05/04 10:22:03;;;;;;;14.20;10.50;;;;;;;13.83;99.35;94899.59;5070842;28;20213;-77
2023/05/04 10:24:45;;;;;;;17.90;11.47;;;;;;;13.98;100.00;94893.88;5068938;28;20250;-75
2023/05/04 10:27:15;;;;;;;16.70;11.13;;;;;;;14.07;99.99;94902.94;5071157;28;20217;-75
2023/05/04 10:29:48;;;;;;;17.67;11.27;;;;;;;14.19;99.56;94907.13;5073083;28;20576;-76
2023/05/04 10:32:19;;;;;;;19.63;11.57;;;;;;;14.23;98.98;94899.56;5075395;28;20200;-75
2023/05/04 10:34:47;;;;;;;18.97;11.83;;;;;;;14.30;98.37;94900.22;5073644;28;20190;-75
2023/05/04 10:37:19;;;;;;;18.70;11.57;;;;;;;14.43;98.37;94892.13;5078190;28;20208;-75
2023/05/04 10:39:53;;;;;;;17.47;11.93;;;;;;;14.49;97.91;94891.19;5066774;28;20193;-76
2023/05/04 10:42:20;;;;;;;22.10;12.30;;;;;;;14.56;95.73;94899.69;5072842;28;20281;-75
2023/05/04 10:44:51;;;;;;;13.43;10.33;;;;;;;14.43;94.16;94896.56;5073143;28;20284;-73
2023/05/04 10:47:28;;;;;;;15.20;11.03;;;;;;;14.46;93.62;94896.88;5075562;28;20292;-75
2023/05/04 10:50:03;;;;;;;18.30;11.57;;;;;;;14.56;94.47;94896.28;5072590;28;20648;-75
2023/05/04 10:52:31;;;;;;;16.33;10.67;;;;;;;14.60;93.08;94898.16;5069475;28;20669;-76
2023/05/04 10:55:00;;;;;;;17.60;11.67;;;;;;;14.65;94.30;94889.63;5077085;28;20742;-75
2023/05/04 10:57:28;;;;;;;18.90;12.27;;;;;;;14.83;96.17;94896.44;5075810;28;20636;-75
2023/05/04 10:59:56;;;;;;;18.87;12.50;;;;;;;15.09;95.66;94893.97;5076748;28;20280;-74
2023/05/04 11:02:24;;;;;;;16.53;11.87;;;;;;;15.27;91.68;94904.19;5077017;28;20223;-74
2023/05/04 11:05:00;;;;;;;20.10;12.53;;;;;;;15.42;91.77;94894.94;5078965;28;20535;-75
2023/05/04 11:07:36;;;;;;;20.13;13.20;;;;;;;15.44;91.44;94890.28;5072569;28;20198;-75
2023/05/04 11:10:04;;;;;;;20.43;11.77;;;;;;;15.39;88.90;94888.38;5064772;28;20229;-75
2023/05/04 11:12:31;;;;;;;21.53;12.07;;;;;;;15.42;89.03;94887.88;5073139;28;20324;-75
2023/05/04 11:15:06;;;;;;;25.03;13.17;;;;;;;15.49;91.60;94890.38;5072439;28;20233;-75
2023/05/04 11:17:33;;;;;;;18.37;12.40;;;;;;;15.60;90.88;94898.13;5069212;28;20197;-75
2023/05/04 11:20:00;;;;;;;20.33;12.80;;;;;;;15.70;91.19;94897.47;5066303;28;20200;-75
2023/05/04 11:22:28;;;;;;;20.10;13.13;;;;;;;15.85;91.42;94898.44;5075476;28;20217;-75
2023/05/04 11:24:56;;;;;;;16.90;12.13;;;;;;;15.88;90.07;94892.69;5074709;28;20193;-75